sensor_id;sensor_type;location;lat;lon;timestamp;temperature;humidity
69328;DHT22;56472;52.114;5.492;2023-05-29T00:01:39;23.70;44.30
69328;DHT22;56472;52.114;5.492;2023-05-29T00:04:07;23.70;44.30
69328;DHT22;56472;52.114;5.492;2023-05-29T00:06:34;23.70;44.30
69328;DHT22;56472;52.114;5.492;2023-05-29T00:09:03;23.70;45.20
69328;DHT22;56472;52.114;5.492;2023-05-29T00:11:30;23.70;44.30
69328;DHT22;56472;52.114;5.492;2023-05-29T00:13:57;23.70;44.30
69328;DHT22;56472;52.114;5.492;2023-05-29T00:16:25;23.70;44.30
69328;DHT22;56472;52.114;5.492;2023-05-29T00:18:52;23.70;44.30
69328;DHT22;56472;52.114;5.492;2023-05-29T00:21:20;23.70;44.30
69328;DHT22;56472;52.114;5.492;2023-05-29T00:23:47;23.70;44.30
69328;DHT22;56472;52.114;5.492;2023-05-29T00:26:14;23.60;44.20
69328;DHT22;56472;52.114;5.492;2023-05-29T00:28:47;23.60;44.20
69328;DHT22;56472;52.114;5.492;2023-05-29T00:31:14;23.60;44.20
69328;DHT22;56472;52.114;5.492;2023-05-29T00:33:41;23.60;44.20
69328;DHT22;56472;52.114;5.492;2023-05-29T00:36:08;23.60;44.20
69328;DHT22;56472;52.114;5.492;2023-05-29T00:38:35;23.60;44.20
69328;DHT22;56472;52.114;5.492;2023-05-29T00:41:02;23.60;44.20
69328;DHT22;56472;52.114;5.492;2023-05-29T00:43:29;23.60;44.20
69328;DHT22;56472;52.114;5.492;2023-05-29T00:45:56;23.50;44.20
69328;DHT22;56472;52.114;5.492;2023-05-29T00:48:24;23.50;44.20
69328;DHT22;56472;52.114;5.492;2023-05-29T00:50:52;23.50;44.20
69328;DHT22;56472;52.114;5.492;2023-05-29T00:53:19;23.50;44.20
69328;DHT22;56472;52.114;5.492;2023-05-29T00:55:47;23.50;44.20
69328;DHT22;56472;52.114;5.492;2023-05-29T00:58:14;23.50;44.10
69328;DHT22;56472;52.114;5.492;2023-05-29T01:00:41;23.50;44.10
69328;DHT22;56472;52.114;5.492;2023-05-29T01:03:10;23.50;44.10
69328;DHT22;56472;52.114;5.492;2023-05-29T01:05:41;23.50;44.10
69328;DHT22;56472;52.114;5.492;2023-05-29T01:08:09;23.50;44.10
69328;DHT22;56472;52.114;5.492;2023-05-29T01:10:37;23.40;44.10
69328;DHT22;56472;52.114;5.492;2023-05-29T01:13:10;23.40;44.20
69328;DHT22;56472;52.114;5.492;2023-05-29T01:15:46;23.40;44.20
69328;DHT22;56472;52.114;5.492;2023-05-29T01:26:58;23.40;44.20
69328;DHT22;56472;52.114;5.492;2023-05-29T01:29:29;23.30;44.10
69328;DHT22;56472;52.114;5.492;2023-05-29T01:31:58;23.30;44.20
69328;DHT22;56472;52.114;5.492;2023-05-29T01:34:26;23.30;44.10
69328;DHT22;56472;52.114;5.492;2023-05-29T01:36:53;23.30;44.10
69328;DHT22;56472;52.114;5.492;2023-05-29T01:39:21;23.30;44.00
69328;DHT22;56472;52.114;5.492;2023-05-29T01:41:49;23.30;44.00
69328;DHT22;56472;52.114;5.492;2023-05-29T01:44:17;23.30;43.90
69328;DHT22;56472;52.114;5.492;2023-05-29T01:46:46;23.30;44.00
69328;DHT22;56472;52.114;5.492;2023-05-29T01:49:14;23.30;43.90
69328;DHT22;56472;52.114;5.492;2023-05-29T01:51:42;23.20;43.90
69328;DHT22;56472;52.114;5.492;2023-05-29T01:54:09;23.30;43.90
69328;DHT22;56472;52.114;5.492;2023-05-29T01:56:37;23.20;43.80
69328;DHT22;56472;52.114;5.492;2023-05-29T01:59:05;23.20;43.90
69328;DHT22;56472;52.114;5.492;2023-05-29T02:01:33;23.20;43.90
69328;DHT22;56472;52.114;5.492;2023-05-29T02:04:00;23.20;43.80
69328;DHT22;56472;52.114;5.492;2023-05-29T02:06:27;23.20;44.70
69328;DHT22;56472;52.114;5.492;2023-05-29T02:08:54;23.20;43.80
69328;DHT22;56472;52.114;5.492;2023-05-29T02:11:21;23.20;43.80
69328;DHT22;56472;52.114;5.492;2023-05-29T02:13:48;23.20;43.60
69328;DHT22;56472;52.114;5.492;2023-05-29T02:16:16;23.20;43.60
69328;DHT22;56472;52.114;5.492;2023-05-29T02:18:44;23.20;43.70
69328;DHT22;56472;52.114;5.492;2023-05-29T02:21:11;23.20;43.70
69328;DHT22;56472;52.114;5.492;2023-05-29T02:23:38;23.20;43.70
69328;DHT22;56472;52.114;5.492;2023-05-29T02:26:05;23.20;43.60
69328;DHT22;56472;52.114;5.492;2023-05-29T02:28:32;23.20;43.50
69328;DHT22;56472;52.114;5.492;2023-05-29T02:30:59;23.10;43.50
69328;DHT22;56472;52.114;5.492;2023-05-29T02:33:26;23.20;43.50
69328;DHT22;56472;52.114;5.492;2023-05-29T02:35:53;23.10;43.40
69328;DHT22;56472;52.114;5.492;2023-05-29T02:38:20;23.10;43.40
69328;DHT22;56472;52.114;5.492;2023-05-29T02:40:47;23.10;43.40
69328;DHT22;56472;52.114;5.492;2023-05-29T02:43:14;23.10;43.50
69328;DHT22;56472;52.114;5.492;2023-05-29T02:45:41;23.10;43.40
69328;DHT22;56472;52.114;5.492;2023-05-29T02:48:08;23.10;43.40
69328;DHT22;56472;52.114;5.492;2023-05-29T02:50:36;23.10;43.40
69328;DHT22;56472;52.114;5.492;2023-05-29T02:53:03;23.10;43.30
69328;DHT22;56472;52.114;5.492;2023-05-29T02:55:30;23.10;43.30
69328;DHT22;56472;52.114;5.492;2023-05-29T02:57:59;23.10;43.30
69328;DHT22;56472;52.114;5.492;2023-05-29T03:00:28;23.10;43.30
69328;DHT22;56472;52.114;5.492;2023-05-29T03:02:57;23.00;43.30
69328;DHT22;56472;52.114;5.492;2023-05-29T03:05:24;23.00;43.20
69328;DHT22;56472;52.114;5.492;2023-05-29T03:07:52;23.00;43.30
69328;DHT22;56472;52.114;5.492;2023-05-29T03:10:19;23.00;43.30
69328;DHT22;56472;52.114;5.492;2023-05-29T03:12:47;23.00;43.30
69328;DHT22;56472;52.114;5.492;2023-05-29T03:15:14;23.00;43.30
69328;DHT22;56472;52.114;5.492;2023-05-29T03:17:41;23.00;43.30
69328;DHT22;56472;52.114;5.492;2023-05-29T03:20:12;23.00;43.20
69328;DHT22;56472;52.114;5.492;2023-05-29T03:22:40;23.00;43.20
69328;DHT22;56472;52.114;5.492;2023-05-29T03:25:08;23.00;43.30
69328;DHT22;56472;52.114;5.492;2023-05-29T03:27:36;23.00;43.20
69328;DHT22;56472;52.114;5.492;2023-05-29T03:30:11;23.00;43.20
69328;DHT22;56472;52.114;5.492;2023-05-29T03:32:38;22.90;43.10
69328;DHT22;56472;52.114;5.492;2023-05-29T03:35:05;22.90;43.10
69328;DHT22;56472;52.114;5.492;2023-05-29T03:37:33;22.90;43.20
69328;DHT22;56472;52.114;5.492;2023-05-29T03:40:00;22.90;43.10
69328;DHT22;56472;52.114;5.492;2023-05-29T03:42:28;22.90;43.10
69328;DHT22;56472;52.114;5.492;2023-05-29T03:45:00;22.90;43.10
69328;DHT22;56472;52.114;5.492;2023-05-29T03:47:28;22.90;43.10
69328;DHT22;56472;52.114;5.492;2023-05-29T03:49:55;22.90;43.10
69328;DHT22;56472;52.114;5.492;2023-05-29T03:52:22;22.90;43.10
69328;DHT22;56472;52.114;5.492;2023-05-29T03:54:49;22.90;43.10
69328;DHT22;56472;52.114;5.492;2023-05-29T03:57:16;22.90;43.10
69328;DHT22;56472;52.114;5.492;2023-05-29T03:59:44;22.90;43.10
69328;DHT22;56472;52.114;5.492;2023-05-29T04:02:11;22.90;43.10
69328;DHT22;56472;52.114;5.492;2023-05-29T04:04:41;22.90;43.00
69328;DHT22;56472;52.114;5.492;2023-05-29T04:07:08;22.80;43.00
69328;DHT22;56472;52.114;5.492;2023-05-29T04:09:35;22.80;43.00
69328;DHT22;56472;52.114;5.492;2023-05-29T04:12:02;22.80;43.00
69328;DHT22;56472;52.114;5.492;2023-05-29T04:14:29;22.80;43.00
69328;DHT22;56472;52.114;5.492;2023-05-29T04:16:56;22.80;43.00
69328;DHT22;56472;52.114;5.492;2023-05-29T04:19:23;22.80;43.00
69328;DHT22;56472;52.114;5.492;2023-05-29T04:21:50;22.80;43.00
69328;DHT22;56472;52.114;5.492;2023-05-29T04:24:17;22.80;43.00
69328;DHT22;56472;52.114;5.492;2023-05-29T04:26:44;22.80;43.00
69328;DHT22;56472;52.114;5.492;2023-05-29T04:29:12;22.80;43.00
69328;DHT22;56472;52.114;5.492;2023-05-29T04:31:40;22.80;43.00
69328;DHT22;56472;52.114;5.492;2023-05-29T04:34:07;22.80;43.00
69328;DHT22;56472;52.114;5.492;2023-05-29T04:36:34;22.80;43.00
69328;DHT22;56472;52.114;5.492;2023-05-29T04:39:10;22.80;43.00
69328;DHT22;56472;52.114;5.492;2023-05-29T04:41:37;22.80;42.90
69328;DHT22;56472;52.114;5.492;2023-05-29T04:44:07;22.80;43.00
69328;DHT22;56472;52.114;5.492;2023-05-29T04:46:42;22.80;42.90
69328;DHT22;56472;52.114;5.492;2023-05-29T04:49:11;22.80;43.00
69328;DHT22;56472;52.114;5.492;2023-05-29T04:51:39;22.80;43.00
69328;DHT22;56472;52.114;5.492;2023-05-29T04:54:10;22.80;43.00
69328;DHT22;56472;52.114;5.492;2023-05-29T04:56:38;22.80;43.00
69328;DHT22;56472;52.114;5.492;2023-05-29T04:59:08;22.80;42.90
69328;DHT22;56472;52.114;5.492;2023-05-29T05:01:35;22.80;42.90
69328;DHT22;56472;52.114;5.492;2023-05-29T05:04:03;22.80;42.80
69328;DHT22;56472;52.114;5.492;2023-05-29T05:06:30;22.80;42.80
69328;DHT22;56472;52.114;5.492;2023-05-29T05:08:58;22.80;42.80
69328;DHT22;56472;52.114;5.492;2023-05-29T05:11:25;22.80;42.70
69328;DHT22;56472;52.114;5.492;2023-05-29T05:13:53;22.80;42.70
69328;DHT22;56472;52.114;5.492;2023-05-29T05:16:20;22.80;42.70
69328;DHT22;56472;52.114;5.492;2023-05-29T05:18:47;22.80;42.70
69328;DHT22;56472;52.114;5.492;2023-05-29T05:21:15;22.80;42.60
69328;DHT22;56472;52.114;5.492;2023-05-29T05:23:42;22.80;42.70
69328;DHT22;56472;52.114;5.492;2023-05-29T05:26:24;22.80;42.70
69328;DHT22;56472;52.114;5.492;2023-05-29T05:28:53;22.80;42.70
69328;DHT22;56472;52.114;5.492;2023-05-29T05:31:22;22.80;42.70
69328;DHT22;56472;52.114;5.492;2023-05-29T05:33:49;22.90;42.70
69328;DHT22;56472;52.114;5.492;2023-05-29T05:36:17;22.90;42.70
69328;DHT22;56472;52.114;5.492;2023-05-29T05:38:44;22.90;42.70
69328;DHT22;56472;52.114;5.492;2023-05-29T05:41:11;22.90;42.70
69328;DHT22;56472;52.114;5.492;2023-05-29T05:43:40;22.90;42.70
69328;DHT22;56472;52.114;5.492;2023-05-29T05:46:11;22.90;42.70
69328;DHT22;56472;52.114;5.492;2023-05-29T05:48:41;22.90;42.70
69328;DHT22;56472;52.114;5.492;2023-05-29T05:51:08;22.90;42.70
69328;DHT22;56472;52.114;5.492;2023-05-29T05:53:36;22.90;42.70
69328;DHT22;56472;52.114;5.492;2023-05-29T05:56:03;22.90;42.70
69328;DHT22;56472;52.114;5.492;2023-05-29T05:58:30;22.90;42.60
69328;DHT22;56472;52.114;5.492;2023-05-29T06:00:58;23.00;42.50
69328;DHT22;56472;52.114;5.492;2023-05-29T06:03:26;23.00;42.40
69328;DHT22;56472;52.114;5.492;2023-05-29T06:05:59;23.00;42.40
69328;DHT22;56472;52.114;5.492;2023-05-29T06:08:26;23.00;42.30
69328;DHT22;56472;52.114;5.492;2023-05-29T06:10:53;23.00;42.30
69328;DHT22;56472;52.114;5.492;2023-05-29T06:13:21;23.00;42.30
69328;DHT22;56472;52.114;5.492;2023-05-29T06:15:53;23.00;42.30
69328;DHT22;56472;52.114;5.492;2023-05-29T06:18:20;23.00;42.30
69328;DHT22;56472;52.114;5.492;2023-05-29T06:20:47;23.10;42.40
69328;DHT22;56472;52.114;5.492;2023-05-29T06:23:14;23.10;42.30
69328;DHT22;56472;52.114;5.492;2023-05-29T06:25:41;23.10;42.40
69328;DHT22;56472;52.114;5.492;2023-05-29T06:28:09;23.10;42.30
69328;DHT22;56472;52.114;5.492;2023-05-29T06:30:35;23.10;42.30
69328;DHT22;56472;52.114;5.492;2023-05-29T06:33:06;23.10;42.20
69328;DHT22;56472;52.114;5.492;2023-05-29T06:35:35;23.20;42.30
69328;DHT22;56472;52.114;5.492;2023-05-29T06:38:02;23.20;42.30
69328;DHT22;56472;52.114;5.492;2023-05-29T06:40:29;23.20;42.30
69328;DHT22;56472;52.114;5.492;2023-05-29T06:42:56;23.20;42.20
69328;DHT22;56472;52.114;5.492;2023-05-29T06:45:37;23.30;42.20
69328;DHT22;56472;52.114;5.492;2023-05-29T06:48:04;23.30;42.20
69328;DHT22;56472;52.114;5.492;2023-05-29T06:50:32;23.30;42.20
69328;DHT22;56472;52.114;5.492;2023-05-29T06:53:18;23.40;42.20
69328;DHT22;56472;52.114;5.492;2023-05-29T06:55:49;23.40;42.30
69328;DHT22;56472;52.114;5.492;2023-05-29T06:58:16;23.40;42.30
69328;DHT22;56472;52.114;5.492;2023-05-29T07:00:43;23.40;42.40
69328;DHT22;56472;52.114;5.492;2023-05-29T07:03:39;23.50;42.40
69328;DHT22;56472;52.114;5.492;2023-05-29T07:06:06;23.50;42.40
69328;DHT22;56472;52.114;5.492;2023-05-29T07:08:34;23.50;42.40
69328;DHT22;56472;52.114;5.492;2023-05-29T07:11:01;23.50;42.50
69328;DHT22;56472;52.114;5.492;2023-05-29T07:13:29;23.50;42.60
69328;DHT22;56472;52.114;5.492;2023-05-29T07:15:56;23.60;42.80
69328;DHT22;56472;52.114;5.492;2023-05-29T07:18:29;23.60;42.90
69328;DHT22;56472;52.114;5.492;2023-05-29T07:21:00;23.60;43.00
69328;DHT22;56472;52.114;5.492;2023-05-29T07:23:29;23.60;42.90
69328;DHT22;56472;52.114;5.492;2023-05-29T07:25:57;23.70;42.90
69328;DHT22;56472;52.114;5.492;2023-05-29T07:28:27;23.70;43.70
69328;DHT22;56472;52.114;5.492;2023-05-29T07:30:54;23.70;42.70
69328;DHT22;56472;52.114;5.492;2023-05-29T07:33:21;23.80;42.70
69328;DHT22;56472;52.114;5.492;2023-05-29T07:35:48;23.80;42.50
69328;DHT22;56472;52.114;5.492;2023-05-29T07:38:16;23.80;42.40
69328;DHT22;56472;52.114;5.492;2023-05-29T07:40:43;23.80;42.40
69328;DHT22;56472;52.114;5.492;2023-05-29T07:43:17;23.80;42.30
69328;DHT22;56472;52.114;5.492;2023-05-29T07:45:53;23.80;42.20
69328;DHT22;56472;52.114;5.492;2023-05-29T07:48:21;23.90;42.30
69328;DHT22;56472;52.114;5.492;2023-05-29T07:50:50;23.90;42.10
69328;DHT22;56472;52.114;5.492;2023-05-29T07:53:19;23.90;41.90
69328;DHT22;56472;52.114;5.492;2023-05-29T07:55:46;23.90;41.80
69328;DHT22;56472;52.114;5.492;2023-05-29T07:58:13;23.90;41.80
69328;DHT22;56472;52.114;5.492;2023-05-29T08:00:44;23.90;41.70
69328;DHT22;56472;52.114;5.492;2023-05-29T08:03:13;24.00;41.70
69328;DHT22;56472;52.114;5.492;2023-05-29T08:06:09;24.00;41.70
69328;DHT22;56472;52.114;5.492;2023-05-29T08:08:36;24.00;41.60
69328;DHT22;56472;52.114;5.492;2023-05-29T08:11:03;24.00;41.60
69328;DHT22;56472;52.114;5.492;2023-05-29T08:13:30;24.00;41.60
69328;DHT22;56472;52.114;5.492;2023-05-29T08:15:57;24.00;41.50
69328;DHT22;56472;52.114;5.492;2023-05-29T08:18:25;24.00;41.40
69328;DHT22;56472;52.114;5.492;2023-05-29T08:20:53;24.10;41.30
69328;DHT22;56472;52.114;5.492;2023-05-29T08:23:20;24.10;41.20
69328;DHT22;56472;52.114;5.492;2023-05-29T08:25:47;24.10;41.20
69328;DHT22;56472;52.114;5.492;2023-05-29T08:28:15;24.10;41.30
69328;DHT22;56472;52.114;5.492;2023-05-29T08:30:41;24.10;41.30
69328;DHT22;56472;52.114;5.492;2023-05-29T08:33:08;24.10;41.10
69328;DHT22;56472;52.114;5.492;2023-05-29T08:35:35;24.20;41.10
69328;DHT22;56472;52.114;5.492;2023-05-29T08:38:02;24.20;41.00
69328;DHT22;56472;52.114;5.492;2023-05-29T08:40:29;24.20;41.00
69328;DHT22;56472;52.114;5.492;2023-05-29T08:43:17;24.20;41.00
69328;DHT22;56472;52.114;5.492;2023-05-29T08:45:52;24.20;41.00
69328;DHT22;56472;52.114;5.492;2023-05-29T08:48:23;24.20;40.90
69328;DHT22;56472;52.114;5.492;2023-05-29T08:50:53;24.20;40.90
69328;DHT22;56472;52.114;5.492;2023-05-29T08:53:22;24.20;40.80
69328;DHT22;56472;52.114;5.492;2023-05-29T08:55:49;24.20;40.70
69328;DHT22;56472;52.114;5.492;2023-05-29T08:58:20;24.20;40.70
69328;DHT22;56472;52.114;5.492;2023-05-29T09:00:50;24.20;40.60
69328;DHT22;56472;52.114;5.492;2023-05-29T09:03:18;24.30;40.60
69328;DHT22;56472;52.114;5.492;2023-05-29T09:05:48;24.30;40.60
69328;DHT22;56472;52.114;5.492;2023-05-29T09:08:16;24.30;40.50
69328;DHT22;56472;52.114;5.492;2023-05-29T09:10:44;24.30;40.50
69328;DHT22;56472;52.114;5.492;2023-05-29T09:13:12;24.30;40.40
69328;DHT22;56472;52.114;5.492;2023-05-29T09:15:41;24.30;40.40
69328;DHT22;56472;52.114;5.492;2023-05-29T09:18:10;24.30;40.30
69328;DHT22;56472;52.114;5.492;2023-05-29T09:20:38;24.40;40.40
69328;DHT22;56472;52.114;5.492;2023-05-29T09:23:07;24.30;40.30
69328;DHT22;56472;52.114;5.492;2023-05-29T09:25:39;24.40;40.50
69328;DHT22;56472;52.114;5.492;2023-05-29T09:28:08;24.40;40.60
69328;DHT22;56472;52.114;5.492;2023-05-29T09:30:45;24.40;40.80
69328;DHT22;56472;52.114;5.492;2023-05-29T09:33:16;24.40;40.90
69328;DHT22;56472;52.114;5.492;2023-05-29T09:35:43;24.40;41.20
69328;DHT22;56472;52.114;5.492;2023-05-29T09:38:13;24.40;41.50
69328;DHT22;56472;52.114;5.492;2023-05-29T09:41:04;24.40;41.90
69328;DHT22;56472;52.114;5.492;2023-05-29T09:43:31;24.50;41.90
69328;DHT22;56472;52.114;5.492;2023-05-29T09:46:01;24.50;41.50
69328;DHT22;56472;52.114;5.492;2023-05-29T09:48:29;24.50;41.40
69328;DHT22;56472;52.114;5.492;2023-05-29T09:50:57;24.50;41.30
69328;DHT22;56472;52.114;5.492;2023-05-29T09:53:27;24.50;41.20
69328;DHT22;56472;52.114;5.492;2023-05-29T09:55:56;24.50;41.10
69328;DHT22;56472;52.114;5.492;2023-05-29T09:58:24;24.50;41.00
69328;DHT22;56472;52.114;5.492;2023-05-29T10:00:52;24.60;40.90
69328;DHT22;56472;52.114;5.492;2023-05-29T10:03:20;24.50;40.70
69328;DHT22;56472;52.114;5.492;2023-05-29T10:05:51;24.50;40.60
69328;DHT22;56472;52.114;5.492;2023-05-29T10:08:19;24.60;40.70
69328;DHT22;56472;52.114;5.492;2023-05-29T10:10:54;24.60;40.70
69328;DHT22;56472;52.114;5.492;2023-05-29T10:13:24;24.60;40.60
69328;DHT22;56472;52.114;5.492;2023-05-29T10:15:54;24.60;40.50
69328;DHT22;56472;52.114;5.492;2023-05-29T10:18:26;24.60;40.40
69328;DHT22;56472;52.114;5.492;2023-05-29T10:20:56;24.60;40.40
69328;DHT22;56472;52.114;5.492;2023-05-29T10:23:25;24.60;40.40
69328;DHT22;56472;52.114;5.492;2023-05-29T10:25:58;24.60;40.30
69328;DHT22;56472;52.114;5.492;2023-05-29T10:28:28;24.60;40.30
69328;DHT22;56472;52.114;5.492;2023-05-29T10:31:18;24.60;40.30
69328;DHT22;56472;52.114;5.492;2023-05-29T10:33:53;24.60;40.20
69328;DHT22;56472;52.114;5.492;2023-05-29T10:36:30;24.60;40.20
69328;DHT22;56472;52.114;5.492;2023-05-29T10:39:02;24.60;40.10
69328;DHT22;56472;52.114;5.492;2023-05-29T10:41:30;24.60;40.20
69328;DHT22;56472;52.114;5.492;2023-05-29T10:44:00;24.60;40.10
69328;DHT22;56472;52.114;5.492;2023-05-29T10:49:21;24.70;40.00
69328;DHT22;56472;52.114;5.492;2023-05-29T10:51:48;24.60;39.90
69328;DHT22;56472;52.114;5.492;2023-05-29T10:54:15;24.60;39.90
69328;DHT22;56472;52.114;5.492;2023-05-29T10:56:56;24.60;39.90
69328;DHT22;56472;52.114;5.492;2023-05-29T10:59:24;24.70;39.90
69328;DHT22;56472;52.114;5.492;2023-05-29T11:01:55;24.70;39.80
69328;DHT22;56472;52.114;5.492;2023-05-29T11:06:54;24.70;40.60
69328;DHT22;56472;52.114;5.492;2023-05-29T11:12:27;24.70;39.70
69328;DHT22;56472;52.114;5.492;2023-05-29T11:15:05;24.80;39.60
69328;DHT22;56472;52.114;5.492;2023-05-29T11:20:08;24.80;39.70
69328;DHT22;56472;52.114;5.492;2023-05-29T11:22:46;24.80;39.60
69328;DHT22;56472;52.114;5.492;2023-05-29T11:25:21;24.80;39.60
69328;DHT22;56472;52.114;5.492;2023-05-29T11:27:49;24.80;39.60
69328;DHT22;56472;52.114;5.492;2023-05-29T11:30:19;24.80;40.20
69328;DHT22;56472;52.114;5.492;2023-05-29T11:32:47;24.80;39.70
69328;DHT22;56472;52.114;5.492;2023-05-29T11:35:15;24.80;39.60
69328;DHT22;56472;52.114;5.492;2023-05-29T11:37:44;24.80;39.60
69328;DHT22;56472;52.114;5.492;2023-05-29T11:40:13;24.80;39.60
69328;DHT22;56472;52.114;5.492;2023-05-29T11:42:47;24.80;39.70
69328;DHT22;56472;52.114;5.492;2023-05-29T11:45:20;24.90;39.70
69328;DHT22;56472;52.114;5.492;2023-05-29T11:48:00;24.90;40.60
69328;DHT22;56472;52.114;5.492;2023-05-29T11:50:30;24.90;39.70
69328;DHT22;56472;52.114;5.492;2023-05-29T11:52:58;24.90;39.70
69328;DHT22;56472;52.114;5.492;2023-05-29T11:55:27;24.90;39.70
69328;DHT22;56472;52.114;5.492;2023-05-29T12:00:30;24.90;39.60
69328;DHT22;56472;52.114;5.492;2023-05-29T12:03:01;24.90;39.60
69328;DHT22;56472;52.114;5.492;2023-05-29T12:05:31;24.90;39.50
69328;DHT22;56472;52.114;5.492;2023-05-29T12:07:58;24.90;39.50
69328;DHT22;56472;52.114;5.492;2023-05-29T12:10:28;24.90;39.60
69328;DHT22;56472;52.114;5.492;2023-05-29T12:12:59;25.00;39.60
69328;DHT22;56472;52.114;5.492;2023-05-29T12:15:28;25.00;39.60
69328;DHT22;56472;52.114;5.492;2023-05-29T12:17:55;25.00;39.60
69328;DHT22;56472;52.114;5.492;2023-05-29T12:20:24;25.00;39.60
69328;DHT22;56472;52.114;5.492;2023-05-29T12:22:59;25.00;39.50
69328;DHT22;56472;52.114;5.492;2023-05-29T12:25:28;25.00;39.40
69328;DHT22;56472;52.114;5.492;2023-05-29T12:27:56;25.00;39.40
69328;DHT22;56472;52.114;5.492;2023-05-29T12:30:24;25.00;39.50
69328;DHT22;56472;52.114;5.492;2023-05-29T12:32:59;25.00;39.70
69328;DHT22;56472;52.114;5.492;2023-05-29T12:35:28;25.00;39.60
69328;DHT22;56472;52.114;5.492;2023-05-29T12:38:00;25.00;39.70
69328;DHT22;56472;52.114;5.492;2023-05-29T12:40:34;25.00;39.60
69328;DHT22;56472;52.114;5.492;2023-05-29T12:43:06;25.00;39.50
69328;DHT22;56472;52.114;5.492;2023-05-29T12:45:34;25.00;39.50
69328;DHT22;56472;52.114;5.492;2023-05-29T12:48:02;25.00;39.50
69328;DHT22;56472;52.114;5.492;2023-05-29T12:50:32;25.00;39.50
69328;DHT22;56472;52.114;5.492;2023-05-29T12:53:12;25.00;39.50
69328;DHT22;56472;52.114;5.492;2023-05-29T12:55:41;25.00;39.60
69328;DHT22;56472;52.114;5.492;2023-05-29T12:58:12;25.10;39.80
69328;DHT22;56472;52.114;5.492;2023-05-29T13:00:42;25.10;39.90
69328;DHT22;56472;52.114;5.492;2023-05-29T13:03:09;25.10;39.80
69328;DHT22;56472;52.114;5.492;2023-05-29T13:05:38;25.10;39.80
69328;DHT22;56472;52.114;5.492;2023-05-29T13:08:06;25.10;39.60
69328;DHT22;56472;52.114;5.492;2023-05-29T13:10:34;25.10;39.60
69328;DHT22;56472;52.114;5.492;2023-05-29T13:13:01;25.10;39.60
69328;DHT22;56472;52.114;5.492;2023-05-29T13:15:28;25.10;39.60
69328;DHT22;56472;52.114;5.492;2023-05-29T13:17:56;25.10;39.60
69328;DHT22;56472;52.114;5.492;2023-05-29T13:20:23;25.10;39.50
69328;DHT22;56472;52.114;5.492;2023-05-29T13:22:50;25.10;39.50
69328;DHT22;56472;52.114;5.492;2023-05-29T13:25:17;25.20;39.40
69328;DHT22;56472;52.114;5.492;2023-05-29T13:27:48;25.10;39.30
69328;DHT22;56472;52.114;5.492;2023-05-29T13:30:16;25.20;39.30
69328;DHT22;56472;52.114;5.492;2023-05-29T13:32:43;25.20;39.30
69328;DHT22;56472;52.114;5.492;2023-05-29T13:35:11;25.20;39.30
69328;DHT22;56472;52.114;5.492;2023-05-29T13:37:38;25.20;39.30
69328;DHT22;56472;52.114;5.492;2023-05-29T13:40:06;25.20;39.20
69328;DHT22;56472;52.114;5.492;2023-05-29T13:42:36;25.20;39.20
69328;DHT22;56472;52.114;5.492;2023-05-29T13:45:06;25.30;39.30
69328;DHT22;56472;52.114;5.492;2023-05-29T13:47:35;25.30;39.20
69328;DHT22;56472;52.114;5.492;2023-05-29T13:50:03;25.30;39.10
69328;DHT22;56472;52.114;5.492;2023-05-29T13:52:30;25.30;39.00
69328;DHT22;56472;52.114;5.492;2023-05-29T13:54:57;25.30;39.00
69328;DHT22;56472;52.114;5.492;2023-05-29T13:57:31;25.30;38.90
69328;DHT22;56472;52.114;5.492;2023-05-29T13:59:58;25.30;39.00
69328;DHT22;56472;52.114;5.492;2023-05-29T14:02:25;25.40;39.10
69328;DHT22;56472;52.114;5.492;2023-05-29T14:04:53;25.40;39.10
69328;DHT22;56472;52.114;5.492;2023-05-29T14:07:20;25.40;39.00
69328;DHT22;56472;52.114;5.492;2023-05-29T14:09:47;25.40;38.90
69328;DHT22;56472;52.114;5.492;2023-05-29T14:12:14;25.40;38.90
69328;DHT22;56472;52.114;5.492;2023-05-29T14:14:41;25.40;38.80
69328;DHT22;56472;52.114;5.492;2023-05-29T14:17:08;25.40;38.60
69328;DHT22;56472;52.114;5.492;2023-05-29T14:19:35;25.50;38.60
69328;DHT22;56472;52.114;5.492;2023-05-29T14:22:02;25.50;38.50
69328;DHT22;56472;52.114;5.492;2023-05-29T14:24:29;25.50;38.50
69328;DHT22;56472;52.114;5.492;2023-05-29T14:26:56;25.50;38.50
69328;DHT22;56472;52.114;5.492;2023-05-29T14:29:23;25.50;38.40
69328;DHT22;56472;52.114;5.492;2023-05-29T14:31:50;25.60;38.40
69328;DHT22;56472;52.114;5.492;2023-05-29T14:34:17;25.60;38.40
69328;DHT22;56472;52.114;5.492;2023-05-29T14:36:44;25.60;38.40
69328;DHT22;56472;52.114;5.492;2023-05-29T14:39:12;25.60;38.20
69328;DHT22;56472;52.114;5.492;2023-05-29T14:41:39;25.70;38.30
69328;DHT22;56472;52.114;5.492;2023-05-29T14:44:06;25.70;38.20
69328;DHT22;56472;52.114;5.492;2023-05-29T14:46:33;25.70;38.10
69328;DHT22;56472;52.114;5.492;2023-05-29T14:49:00;25.70;38.00
69328;DHT22;56472;52.114;5.492;2023-05-29T14:51:28;25.70;38.10
69328;DHT22;56472;52.114;5.492;2023-05-29T14:53:55;25.80;38.00
69328;DHT22;56472;52.114;5.492;2023-05-29T14:56:22;25.80;37.90
69328;DHT22;56472;52.114;5.492;2023-05-29T14:58:49;25.80;37.90
69328;DHT22;56472;52.114;5.492;2023-05-29T15:01:17;25.80;37.90
69328;DHT22;56472;52.114;5.492;2023-05-29T15:03:44;25.80;37.90
69328;DHT22;56472;52.114;5.492;2023-05-29T15:06:12;25.80;37.90
69328;DHT22;56472;52.114;5.492;2023-05-29T15:08:40;25.80;38.00
69328;DHT22;56472;52.114;5.492;2023-05-29T15:11:09;25.80;37.90
69328;DHT22;56472;52.114;5.492;2023-05-29T15:13:36;25.90;38.00
69328;DHT22;56472;52.114;5.492;2023-05-29T15:16:03;25.90;38.00
69328;DHT22;56472;52.114;5.492;2023-05-29T15:18:33;25.90;38.00
69328;DHT22;56472;52.114;5.492;2023-05-29T15:21:00;25.90;38.30
69328;DHT22;56472;52.114;5.492;2023-05-29T15:23:27;26.00;38.40
69328;DHT22;56472;52.114;5.492;2023-05-29T15:25:54;26.00;38.40
69328;DHT22;56472;52.114;5.492;2023-05-29T15:28:22;26.00;38.50
69328;DHT22;56472;52.114;5.492;2023-05-29T15:30:49;26.00;38.40
69328;DHT22;56472;52.114;5.492;2023-05-29T15:33:16;26.00;38.50
69328;DHT22;56472;52.114;5.492;2023-05-29T15:35:43;26.10;38.40
69328;DHT22;56472;52.114;5.492;2023-05-29T15:38:10;26.10;38.50
69328;DHT22;56472;52.114;5.492;2023-05-29T15:40:39;26.10;38.40
69328;DHT22;56472;52.114;5.492;2023-05-29T15:43:08;26.10;38.50
69328;DHT22;56472;52.114;5.492;2023-05-29T15:45:36;26.10;38.50
69328;DHT22;56472;52.114;5.492;2023-05-29T15:48:04;26.10;38.40
69328;DHT22;56472;52.114;5.492;2023-05-29T15:50:31;26.10;38.40
69328;DHT22;56472;52.114;5.492;2023-05-29T15:52:58;26.10;38.40
69328;DHT22;56472;52.114;5.492;2023-05-29T15:55:25;26.20;38.30
69328;DHT22;56472;52.114;5.492;2023-05-29T15:57:52;26.10;38.20
69328;DHT22;56472;52.114;5.492;2023-05-29T16:00:20;26.10;38.20
69328;DHT22;56472;52.114;5.492;2023-05-29T16:02:47;26.10;38.10